createdAt,value
2018-11-13T00:02:25.193Z,54.13
2018-11-13T00:07:29.102Z,35.80
2018-11-13T00:12:34.561Z,33.13
2018-11-13T00:17:39.496Z,36.00
2018-11-13T00:22:44.089Z,37.73
2018-11-13T00:27:47.957Z,36.27
2018-11-13T00:32:52.092Z,35.80
2018-11-13T00:37:55.682Z,70.33
2018-11-13T00:42:59.146Z,60.37
2018-11-13T00:48:03.108Z,86.67
2018-11-13T00:53:07.064Z,56.03
2018-11-13T00:58:10.838Z,47.00
2018-11-13T01:03:14.543Z,79.47
2018-11-13T01:08:24.343Z,59.23
2018-11-13T01:13:30.244Z,54.83
2018-11-13T01:18:43.183Z,68.83
2018-11-13T01:23:47.640Z,47.33
2018-11-13T01:28:51.512Z,73.60
2018-11-13T01:33:54.983Z,79.30
2018-11-13T01:38:58.571Z,102.57
2018-11-13T01:44:02.471Z,91.70
2018-11-13T01:49:06.140Z,99.97
2018-11-13T01:54:11.504Z,98.40
2018-11-13T01:59:15.057Z,96.00
2018-11-13T02:04:18.511Z,69.90
2018-11-13T02:09:22.455Z,85.73
2018-11-13T02:14:26.086Z,84.33
2018-11-13T02:19:29.693Z,86.63
2018-11-13T02:24:33.816Z,91.10
2018-11-13T02:29:37.787Z,115.80
2018-11-13T02:34:42.045Z,133.13
2018-11-13T02:39:45.849Z,96.60
2018-11-13T02:45:10.283Z,97.37
2018-11-13T02:50:18.537Z,76.70
2018-11-13T02:55:23.065Z,104.13
2018-11-13T03:00:28.203Z,96.97
2018-11-13T03:05:36.357Z,89.40
2018-11-13T03:10:49.380Z,121.57
2018-11-13T03:15:53.510Z,89.90
2018-11-13T03:20:57.312Z,89.13
2018-11-13T03:26:08.752Z,133.87
2018-11-13T03:31:12.233Z,81.07
2018-11-13T03:36:17.209Z,95.87
2018-11-13T03:41:24.973Z,106.03
2018-11-13T03:46:29.129Z,96.27
2018-11-13T03:51:32.956Z,138.70
2018-11-13T03:56:36.841Z,162.77
2018-11-13T04:01:40.607Z,144.13
2018-11-13T04:06:44.746Z,83.67
2018-11-13T04:11:48.186Z,105.33
2018-11-13T04:16:52.071Z,93.13
2018-11-13T04:22:04.117Z,103.73
2018-11-13T04:27:09.226Z,119.13
2018-11-13T04:32:16.006Z,90.60
2018-11-13T04:37:19.911Z,145.93
2018-11-13T04:42:32.405Z,70.70
2018-11-13T04:47:36.094Z,102.13
2018-11-13T04:52:39.929Z,84.30
2018-11-13T04:57:44.782Z,82.43
2018-11-13T05:02:48.774Z,84.97
2018-11-13T05:07:53.503Z,95.40
2018-11-13T05:12:56.870Z,92.57
2018-11-13T05:18:00.912Z,94.53
2018-11-13T05:23:04.805Z,95.47
2018-11-13T05:28:08.805Z,99.23
2018-11-13T05:33:12.150Z,87.77
2018-11-13T05:38:16.012Z,108.83
2018-11-13T05:43:20.018Z,87.83
2018-11-13T05:48:23.995Z,105.90
2018-11-13T05:53:27.360Z,96.10
2018-11-13T05:58:30.976Z,94.97
2018-11-13T06:03:34.626Z,84.93
2018-11-13T06:08:38.069Z,86.03
2018-11-13T06:13:41.426Z,49.07
2018-11-13T06:18:45.659Z,87.87
2018-11-13T06:23:51.692Z,77.73
2018-11-13T06:28:56.105Z,85.00
2018-11-13T06:33:59.490Z,80.57
2018-11-13T06:39:08.509Z,84.20
2018-11-13T06:44:12.190Z,114.77
2018-11-13T06:49:15.625Z,72.67
2018-11-13T06:54:29.887Z,74.87
2018-11-13T06:59:37.023Z,96.90
2018-11-13T07:04:49.246Z,83.07
2018-11-13T07:09:53.034Z,99.50
2018-11-13T07:14:56.400Z,77.80
2018-11-13T07:19:59.848Z,57.87
2018-11-13T07:25:08.510Z,66.50
2018-11-13T07:30:13.521Z,87.23
2018-11-13T07:35:18.034Z,55.63
2018-11-13T07:40:21.662Z,92.23
2018-11-13T07:45:25.351Z,78.33
2018-11-13T07:50:28.718Z,78.93
2018-11-13T07:55:32.115Z,81.00
2018-11-13T08:00:35.521Z,74.23
2018-11-13T08:05:38.995Z,89.53
2018-11-13T08:10:42.687Z,94.40
2018-11-13T08:15:46.063Z,82.63
2018-11-13T08:20:49.508Z,76.70
2018-11-13T08:25:52.919Z,91.67
2018-11-13T08:30:56.513Z,85.47
2018-11-13T08:36:01.202Z,74.03
2018-11-13T08:41:09.623Z,61.70
2018-11-13T08:46:13.212Z,62.60
2018-11-13T08:51:16.620Z,64.23
2018-11-13T08:56:20.221Z,74.47
2018-11-13T09:01:24.061Z,95.17
2018-11-13T09:06:27.430Z,69.07
2018-11-13T09:11:30.770Z,72.40
2018-11-13T09:16:34.585Z,79.80
2018-11-13T09:21:38.339Z,62.23
2018-11-13T09:26:41.718Z,75.50
2018-11-13T09:31:45.136Z,71.60
2018-11-13T09:36:48.542Z,51.50
2018-11-13T09:41:51.496Z,69.70
2018-11-13T09:46:55.086Z,61.27
2018-11-13T09:51:58.453Z,85.13
2018-11-13T09:57:02.090Z,59.13
2018-11-13T10:02:05.744Z,81.60
2018-11-13T10:07:08.963Z,61.87
2018-11-13T10:12:12.381Z,67.80
2018-11-13T10:17:16.178Z,70.07
2018-11-13T10:22:19.969Z,66.73
2018-11-13T10:27:23.414Z,56.50
2018-11-13T10:32:26.797Z,70.73
2018-11-13T10:37:30.199Z,89.90
2018-11-13T10:42:34.038Z,81.70
2018-11-13T10:47:37.729Z,91.53
2018-11-13T10:53:43.742Z,104.80
2018-11-13T10:58:47.484Z,86.40
2018-11-13T11:03:56.557Z,70.20
2018-11-13T11:09:00.339Z,96.17
2018-11-13T11:14:04.655Z,73.87
2018-11-13T11:19:07.931Z,92.93
2018-11-13T11:24:11.545Z,94.57
2018-11-13T11:29:15.379Z,86.33
2018-11-13T11:34:19.081Z,73.90
2018-11-13T11:39:22.514Z,78.47
2018-11-13T11:44:25.981Z,90.57
2018-11-13T11:49:29.354Z,82.10
2018-11-13T11:54:32.748Z,79.90
2018-11-13T11:59:41.654Z,65.43
2018-11-13T12:04:45.063Z,88.47
2018-11-13T12:09:49.074Z,63.17
2018-11-13T12:14:53.133Z,67.43
2018-11-13T12:20:00.910Z,61.63
2018-11-13T12:25:05.854Z,65.70
2018-11-13T12:30:12.668Z,63.60
2018-11-13T12:35:23.158Z,67.23
2018-11-13T12:40:26.773Z,74.97
2018-11-13T12:45:39.616Z,58.27
2018-11-13T12:50:49.578Z,62.87
2018-11-13T12:55:53.038Z,57.60
2018-11-13T13:00:56.404Z,55.50
2018-11-13T13:06:00.109Z,54.40
2018-11-13T13:11:03.625Z,53.97
2018-11-13T13:16:07.113Z,58.97
2018-11-13T13:21:10.742Z,50.10
2018-11-13T13:26:14.235Z,58.10
2018-11-13T13:31:17.748Z,55.20
2018-11-13T13:36:21.102Z,46.73
2018-11-13T13:41:27.380Z,57.10
2018-11-13T13:46:30.950Z,42.93
2018-11-13T13:51:34.298Z,45.33
2018-11-13T13:56:37.706Z,40.37
2018-11-13T14:01:41.461Z,35.40
2018-11-13T14:06:45.494Z,43.00
2018-11-13T14:11:49.685Z,47.73
2018-11-13T14:16:53.106Z,44.13
2018-11-13T14:21:56.761Z,46.03
2018-11-13T14:27:04.895Z,40.90
2018-11-13T14:32:08.921Z,28.93
2018-11-13T14:37:16.589Z,38.70
2018-11-13T14:42:20.457Z,35.13
2018-11-13T14:47:23.828Z,38.50
2018-11-13T14:52:27.251Z,26.33
2018-11-13T14:57:32.725Z,35.17
2018-11-13T15:02:43.258Z,34.83
2018-11-13T15:07:48.117Z,37.50
2018-11-13T15:12:51.551Z,51.33
2018-11-13T15:17:55.546Z,41.97
2018-11-13T15:22:59.061Z,56.40
2018-11-13T15:28:02.953Z,36.00
2018-11-13T15:33:08.829Z,32.60
2018-11-13T15:38:12.457Z,34.00
2018-11-13T15:43:16.129Z,35.20
2018-11-13T15:48:19.802Z,31.40
2018-11-13T15:53:23.126Z,31.87
2018-11-13T15:58:26.760Z,63.87
2018-11-13T16:03:35.058Z,52.40
2018-11-13T16:08:38.462Z,39.53
2018-11-13T16:13:46.813Z,39.50
2018-11-13T16:18:50.205Z,65.53
2018-11-13T16:23:54.078Z,67.90
2018-11-13T16:28:58.079Z,117.07
2018-11-13T16:34:07.739Z,36.03
2018-11-13T16:39:13.247Z,41.10
2018-11-13T16:44:17.182Z,39.80
2018-11-13T16:49:21.957Z,71.77
2018-11-13T16:54:30.791Z,83.53
2018-11-13T16:59:34.414Z,67.03
2018-11-13T17:04:37.823Z,81.70
2018-11-13T17:09:41.211Z,55.60
2018-11-13T17:14:59.768Z,69.03
2018-11-13T17:20:03.596Z,51.30
2018-11-13T17:25:08.035Z,72.13
2018-11-13T17:30:16.676Z,53.67
2018-11-13T17:35:21.836Z,39.73
2018-11-13T17:40:30.070Z,53.07
2018-11-13T17:45:42.130Z,76.23
2018-11-13T17:50:52.703Z,66.40
2018-11-13T17:55:56.797Z,66.43
2018-11-13T18:01:00.469Z,38.60
2018-11-13T18:06:04.568Z,67.67
2018-11-13T18:11:08.156Z,49.33
2018-11-13T18:16:11.832Z,47.47
2018-11-13T18:21:15.534Z,56.73
2018-11-13T18:26:19.342Z,51.20
2018-11-13T18:31:23.198Z,64.00
2018-11-13T18:36:27.345Z,57.70
2018-11-13T18:41:30.826Z,59.03
2018-11-13T18:46:34.243Z,51.30
2018-11-13T18:51:42.138Z,78.97
2018-11-13T18:56:46.049Z,70.80
2018-11-13T19:01:49.597Z,58.10
2018-11-13T19:06:53.657Z,80.87
2018-11-13T19:12:01.479Z,81.13
2018-11-13T19:17:05.619Z,75.23
2018-11-13T19:22:09.169Z,60.63
2018-11-13T19:27:12.588Z,61.80
2018-11-13T19:32:16.389Z,38.00
2018-11-13T19:37:20.195Z,42.67
2018-11-13T19:42:23.955Z,49.13
2018-11-13T19:47:27.364Z,30.00
2018-11-13T19:52:30.788Z,19.33
2018-11-13T19:57:34.242Z,44.73
2018-11-13T20:02:38.340Z,61.57
2018-11-13T20:07:41.892Z,47.83
2018-11-13T20:12:46.894Z,55.10
2018-11-13T20:17:50.282Z,71.93
2018-11-13T20:22:54.080Z,66.37
2018-11-13T20:28:02.137Z,51.10
2018-11-13T20:33:05.838Z,66.13
2018-11-13T20:38:09.497Z,68.70
2018-11-13T20:43:13.155Z,76.60
2018-11-13T20:48:16.821Z,76.97
2018-11-13T20:53:20.185Z,64.07
2018-11-13T20:58:23.862Z,84.87
2018-11-13T21:03:27.290Z,56.67
2018-11-13T21:08:30.724Z,52.17
2018-11-13T21:13:34.253Z,58.30
2018-11-13T21:18:38.494Z,57.00
2018-11-13T21:23:42.133Z,38.07
2018-11-13T21:28:45.862Z,60.07
2018-11-13T21:33:49.537Z,68.13
2018-11-13T21:38:53.386Z,46.60
2018-11-13T21:43:56.814Z,66.10
2018-11-13T21:49:01.310Z,43.03
2018-11-13T21:54:05.015Z,51.70
2018-11-13T21:59:09.510Z,45.33
2018-11-13T22:04:13.043Z,35.30
2018-11-13T22:09:16.420Z,33.27
2018-11-13T22:14:20.411Z,51.13
2018-11-13T22:19:23.790Z,53.17
2018-11-13T22:24:27.410Z,39.17
2018-11-13T22:29:32.346Z,48.20
2018-11-13T22:34:36.358Z,49.00
2018-11-13T22:45:45.820Z,48.83
2018-11-13T22:50:49.185Z,65.67
2018-11-13T22:55:52.860Z,47.43
2018-11-13T23:00:56.622Z,29.47
2018-11-13T23:06:00.032Z,32.97
2018-11-13T23:11:09.270Z,17.23
2018-11-13T23:16:12.656Z,34.40
2018-11-13T23:21:16.253Z,20.63
2018-11-13T23:26:19.655Z,26.23
2018-11-13T23:31:23.332Z,47.77
2018-11-13T23:36:26.729Z,27.47
2018-11-13T23:41:30.345Z,27.03
2018-11-13T23:46:34.256Z,27.93
2018-11-13T23:51:37.607Z,41.53
2018-11-13T23:56:41.188Z,31.33
